Azure — ZCEE2 — position and weather

sailwx.info

Track history (hours):
 
Tides and Currents Weather Stations Pressure Air Temp Water Temp Dewpoint Dewpoint Depression Visibility Wind Speed Wind Dir Waves Ship Positions

Azure

Last reported at 2019-Oct-15 22:02 UTC. Time now 2019-Oct-16 19:35 UTC.
Position N 39°32' W 009°44'.

Length 289 m; draft 8.6 m.

Type: Passenger vessel. MMSI: 310610000.

Date/timePositionNaut miles runAvg speedWind from/ knotsBaromVisibWave heightAir tempDewpointWater temp
2019-Oct-15 22:02N 39°32' W 009°44'118.2
2019-Oct-15 22:00N 39°32' W 009°44'917.9
2019-Oct-15 21:29N 39°22' W 009°44'817.5
2019-Oct-15 21:00N 39°14' W 009°43'917.6
2019-Oct-15 20:30N 39°05' W 009°43'917.4
2019-Oct-15 20:00N 38°57' W 009°43'917.4
2019-Oct-15 19:30N 38°48' W 009°42'917.2
2019-Oct-15 19:00N 38°39' W 009°41'816.5
2019-Oct-15 18:30N 38°37' W 009°31'815.9
2019-Oct-15 18:00N 38°38' W 009°21'713.4
2019-Oct-15 17:30N 38°41' W 009°13'4 8.9
2019-Oct-15 17:01N 38°42' W 009°07'0 0.3
2019-Oct-15 16:30N 38°43' W 009°08'0 0.0
2019-Oct-15 16:00N 38°43' W 009°08'0 0.0
2019-Oct-15 15:30N 38°43' W 009°08'0 0.0
2019-Oct-15 15:01N 38°43' W 009°08'0 0.0
2019-Oct-15 14:29N 38°43' W 009°08'0 0.0
2019-Oct-15 13:59N 38°43' W 009°08'0 0.0
2019-Oct-15 13:29N 38°43' W 009°08'0 0.0
2019-Oct-15 12:59N 38°43' W 009°08'0 0.0
2019-Oct-15 12:28N 38°43' W 009°08'0 0.0
2019-Oct-15 11:59N 38°43' W 009°08'0 0.0
2019-Oct-15 11:30N 38°43' W 009°08'0 0.0
2019-Oct-15 11:00N 38°43' W 009°08'0 0.0
2019-Oct-15 10:30N 38°43' W 009°08'0 0.0
2019-Oct-15 10:00N 38°43' W 009°08'0 0.0
2019-Oct-15 09:30N 38°43' W 009°08'0 0.0
2019-Oct-15 09:01N 38°43' W 009°08'0 0.0
2019-Oct-15 08:28N 38°43' W 009°08'0 0.0
2019-Oct-15 07:58N 38°43' W 009°08'0 0.0
2019-Oct-15 07:28N 38°43' W 009°08'0 0.0
2019-Oct-15 07:00N 38°43' W 009°08'0 0.0
2019-Oct-15 06:29N 38°43' W 009°08'1 1.3
2019-Oct-15 06:00N 38°42' W 009°08'4 8.2
2019-Oct-15 05:30N 38°41' W 009°13'5 9.8
2019-Oct-15 05:00N 38°40' W 009°19'713.7
2019-Oct-15 04:30N 38°35' W 009°25'917.5
2019-Oct-15 04:00N 38°28' W 009°32'917.7
2019-Oct-15 03:30N 38°19' W 009°36'1117.4
2019-Oct-15 02:54N 38°09' W 009°40'916.5
2019-Oct-15 02:23N 38°01' W 009°44'55917.0
2019-Oct-13 17:32N 29°10' W 013°12'116.3
2019-Oct-13 17:29N 29°10' W 013°13'815.8
2019-Oct-13 16:59N 29°04' W 013°18'916.4
2019-Oct-13 16:26N 28°59' W 013°27'410.4
2019-Oct-13 16:00N 28°57' W 013°32'1 0.8
2019-Oct-13 15:24N 28°58' W 013°32'0 0.0
2019-Oct-13 15:00N 28°58' W 013°32'0 0.0
2019-Oct-13 14:10N 28°58' W 013°32'0 0.0
2019-Oct-13 13:59N 28°58' W 013°32'0 0.0
2019-Oct-13 11:22N 28°58' W 013°32'0 0.0
2019-Oct-13 11:00N 28°58' W 013°32'0 0.0
2019-Oct-13 09:48N 28°58' W 013°32'0 0.0
2019-Oct-13 09:24N 28°58' W 013°32'0 0.0
2019-Oct-13 08:50N 28°58' W 013°32'0 0.0
2019-Oct-13 08:15N 28°58' W 013°32'0 0.0
2019-Oct-13 07:22N 28°58' W 013°32'0 0.0
2019-Oct-13 06:52N 28°58' W 013°32'0 0.7
2019-Oct-13 06:19N 28°58' W 013°32'3 7.8
2019-Oct-13 05:53N 28°54' W 013°33'7 9.8
2019-Oct-13 05:13N 28°51' W 013°40'411.0
2019-Oct-13 04:49N 28°49' W 013°44'510.8
2019-Oct-13 04:24N 28°48' W 013°49'4210.2
2019-Oct-13 00:18N 28°48' W 014°37'4 9.8
2019-Oct-12 23:56N 28°45' W 014°40'410.2
2019-Oct-12 23:30N 28°41' W 014°42'510.7
2019-Oct-12 23:00N 28°36' W 014°44'511.0
2019-Oct-12 22:31N 28°31' W 014°46'510.8
2019-Oct-12 22:01N 28°26' W 014°48'510.9
2019-Oct-12 21:31N 28°21' W 014°49'611.3
2019-Oct-12 21:01N 28°15' W 014°52'611.1
2019-Oct-12 20:30N 28°10' W 014°54'611.1
2019-Oct-12 20:00N 28°05' W 014°56'4 8.2
2019-Oct-12 19:31N 28°03' W 015°00'510.7
2019-Oct-12 19:01N 28°05' W 015°06'510.3
2019-Oct-12 18:31N 28°06' W 015°12'510.3
2019-Oct-12 18:00N 28°06' W 015°17'510.7
2019-Oct-12 17:31N 28°07' W 015°23'2 4.9
2019-Oct-12 17:01N 28°08' W 015°25'0 0.3
2019-Oct-12 16:28N 28°08' W 015°25'0 0.0
2019-Oct-12 15:58N 28°08' W 015°25'0 0.0
2019-Oct-12 15:28N 28°08' W 015°25'0 0.0
2019-Oct-12 14:58N 28°08' W 015°25'0 0.0
2019-Oct-12 14:28N 28°08' W 015°25'0 0.0
2019-Oct-12 13:58N 28°08' W 015°25'0 0.0
2019-Oct-12 13:28N 28°08' W 015°25'0 0.0
2019-Oct-12 12:58N 28°08' W 015°25'0 0.0
2019-Oct-12 12:27N 28°08' W 015°25'0 0.0
2019-Oct-12 11:58N 28°08' W 015°25'0 0.0
2019-Oct-12 11:29N 28°08' W 015°25'0 0.0
2019-Oct-12 10:58N 28°08' W 015°25'0 0.0
2019-Oct-12 10:28N 28°08' W 015°25'0 0.0
2019-Oct-12 09:58N 28°08' W 015°25'0 0.0
2019-Oct-12 09:28N 28°08' W 015°25'0 0.0
2019-Oct-12 08:58N 28°08' W 015°25'0 0.0
2019-Oct-12 08:30N 28°08' W 015°25'0 0.0
2019-Oct-12 08:00N 28°08' W 015°25'0 0.0
2019-Oct-12 07:30N 28°08' W 015°25'0 0.0
2019-Oct-12 06:57N 28°08' W 015°25'0 0.6
2019-Oct-12 06:30N 28°08' W 015°25'3 5.5
2019-Oct-12 06:00N 28°07' W 015°23'3 7.0
2019-Oct-12 05:30N 28°07' W 015°19'611.7
2019-Oct-12 05:00N 28°01' W 015°17'611.8
2019-Oct-12 04:30N 27°55' W 015°16'611.4
2019-Oct-12 04:00N 27°50' W 015°16'510.9
2019-Oct-12 03:30N 27°44' W 015°17'611.2
2019-Oct-12 03:00N 27°40' W 015°21'54 7.8
2019-Oct-11 20:02N 28°09' W 016°12'212.4
2019-Oct-11 19:54N 28°11' W 016°11'512.7
2019-Oct-11 19:30N 28°15' W 016°07'612.7
2019-Oct-11 19:00N 28°20' W 016°04'612.3
2019-Oct-11 18:30N 28°24' W 016°09'611.5
2019-Oct-11 18:00N 28°28' W 016°14'1 1.5
2019-Oct-11 17:30N 28°28' W 016°14'0 0.0
2019-Oct-11 17:00N 28°28' W 016°14'0 0.0
2019-Oct-11 16:30N 28°28' W 016°14'0 0.0
2019-Oct-11 16:00N 28°28' W 016°14'0 0.0
2019-Oct-11 15:27N 28°28' W 016°14'0 0.0
2019-Oct-11 15:00N 28°28' W 016°14'0 0.0
2019-Oct-11 14:30N 28°28' W 016°14'0 0.0
2019-Oct-11 14:00N 28°28' W 016°14'0 0.0
2019-Oct-11 13:30N 28°28' W 016°14'0 0.0
2019-Oct-11 12:54N 28°28' W 016°14'0 0.0
2019-Oct-11 12:30N 28°28' W 016°14'0 0.0
2019-Oct-11 11:59N 28°28' W 016°14'0 0.0
2019-Oct-11 11:30N 28°28' W 016°14'0 0.0
2019-Oct-11 10:59N 28°28' W 016°14'0 0.0
2019-Oct-11 10:29N 28°28' W 016°14'0 0.0
2019-Oct-11 10:00N 28°28' W 016°14'0 0.0
2019-Oct-11 09:31N 28°28' W 016°14'0 0.0
2019-Oct-11 08:58N 28°28' W 016°14'0 0.0
2019-Oct-11 08:28N 28°28' W 016°14'0 0.0
2019-Oct-11 08:00N 28°28' W 016°14'0 0.0
2019-Oct-11 07:30N 28°28' W 016°14'0 0.0
2019-Oct-11 07:00N 28°28' W 016°14'1 1.2
2019-Oct-11 06:31N 28°29' W 016°14'2 3.1
2019-Oct-11 06:01N 28°28' W 016°13'510.6
2019-Oct-11 05:30N 28°25' W 016°08'612.8
2019-Oct-11 05:01N 28°23' W 016°01'611.6
2019-Oct-11 04:30N 28°19' W 015°56'612.0
2019-Oct-11 04:00N 28°14' W 015°60'510.8
2019-Oct-11 03:30N 28°10' W 016°04'6 9.7
2019-Oct-11 02:51N 28°06' W 016°08'4 9.9
2019-Oct-11 02:25N 28°02' W 016°11'301 6.2
2019-Oct-09 01:46N 33°03' W 016°12'12414.3
2019-Oct-08 17:08N 34°56' W 015°12'17315.6
2019-Oct-08 06:00N 37°36' W 013°48'40517.6 360 / 121021.410.8 22.018.021.7
2019-Oct-07 07:00N 43°48' W 010°18'39115.6 220 / 171018.310.8 19.017.417.8
2019-Oct-06 06:00N 49°12' W 005°00'5315.7 320 / 271013.210.8 15.011.316.5
2019-Oct-06 02:36N 49°40' W 003°50'1015.8
2019-Oct-06 01:57N 49°45' W 003°37'815.6
2019-Oct-06 01:28N 49°49' W 003°26'715.3
2019-Oct-06 01:00N 49°52' W 003°17'815.3
2019-Oct-06 00:30N 49°57' W 003°07'815.2
2019-Oct-06 00:00N 50°01' W 002°57'815.3
2019-Oct-05 23:30N 50°03' W 002°45'815.5
2019-Oct-05 23:00N 50°05' W 002°34'  
Track history (hours):
 
Tides and Currents Weather Stations Pressure Air Temp Water Temp Dewpoint Dewpoint Depression Visibility Wind Speed Wind Dir Waves Ship Positions

Azure

Last reported at 2019-Oct-15 22:02 UTC. Time now 2019-Oct-16 19:35 UTC.
Position N 39°32' W 009°44'.

Length 289 m; draft 8.6 m.

Type: Passenger vessel. MMSI: 310610000.

Date/timePositionNaut miles runAvg speedWind from/ knotsBaromVisibWave heightAir tempDewpointWater temp
2019-Oct-15 22:02N 39°32' W 009°44'118.2
2019-Oct-15 22:00N 39°32' W 009°44'917.9
2019-Oct-15 21:29N 39°22' W 009°44'817.5
2019-Oct-15 21:00N 39°14' W 009°43'917.6
2019-Oct-15 20:30N 39°05' W 009°43'917.4
2019-Oct-15 20:00N 38°57' W 009°43'917.4
2019-Oct-15 19:30N 38°48' W 009°42'917.2
2019-Oct-15 19:00N 38°39' W 009°41'816.5
2019-Oct-15 18:30N 38°37' W 009°31'815.9
2019-Oct-15 18:00N 38°38' W 009°21'713.4
2019-Oct-15 17:30N 38°41' W 009°13'4 8.9
2019-Oct-15 17:01N 38°42' W 009°07'0 0.3
2019-Oct-15 16:30N 38°43' W 009°08'0 0.0
2019-Oct-15 16:00N 38°43' W 009°08'0 0.0
2019-Oct-15 15:30N 38°43' W 009°08'0 0.0
2019-Oct-15 15:01N 38°43' W 009°08'0 0.0
2019-Oct-15 14:29N 38°43' W 009°08'0 0.0
2019-Oct-15 13:59N 38°43' W 009°08'0 0.0
2019-Oct-15 13:29N 38°43' W 009°08'0 0.0
2019-Oct-15 12:59N 38°43' W 009°08'0 0.0
2019-Oct-15 12:28N 38°43' W 009°08'0 0.0
2019-Oct-15 11:59N 38°43' W 009°08'0 0.0
2019-Oct-15 11:30N 38°43' W 009°08'0 0.0
2019-Oct-15 11:00N 38°43' W 009°08'0 0.0
2019-Oct-15 10:30N 38°43' W 009°08'0 0.0
2019-Oct-15 10:00N 38°43' W 009°08'0 0.0
2019-Oct-15 09:30N 38°43' W 009°08'0 0.0
2019-Oct-15 09:01N 38°43' W 009°08'0 0.0
2019-Oct-15 08:28N 38°43' W 009°08'0 0.0
2019-Oct-15 07:58N 38°43' W 009°08'0 0.0
2019-Oct-15 07:28N 38°43' W 009°08'0 0.0
2019-Oct-15 07:00N 38°43' W 009°08'0 0.0
2019-Oct-15 06:29N 38°43' W 009°08'1 1.3
2019-Oct-15 06:00N 38°42' W 009°08'4 8.2
2019-Oct-15 05:30N 38°41' W 009°13'5 9.8
2019-Oct-15 05:00N 38°40' W 009°19'713.7
2019-Oct-15 04:30N 38°35' W 009°25'917.5
2019-Oct-15 04:00N 38°28' W 009°32'917.7
2019-Oct-15 03:30N 38°19' W 009°36'1117.4
2019-Oct-15 02:54N 38°09' W 009°40'916.5
2019-Oct-15 02:23N 38°01' W 009°44'55917.0
2019-Oct-13 17:32N 29°10' W 013°12'116.3
2019-Oct-13 17:29N 29°10' W 013°13'815.8
2019-Oct-13 16:59N 29°04' W 013°18'916.4
2019-Oct-13 16:26N 28°59' W 013°27'410.4
2019-Oct-13 16:00N 28°57' W 013°32'1 0.8
2019-Oct-13 15:24N 28°58' W 013°32'0 0.0
2019-Oct-13 15:00N 28°58' W 013°32'0 0.0
2019-Oct-13 14:10N 28°58' W 013°32'0 0.0
2019-Oct-13 13:59N 28°58' W 013°32'0 0.0
2019-Oct-13 11:22N 28°58' W 013°32'0 0.0
2019-Oct-13 11:00N 28°58' W 013°32'0 0.0
2019-Oct-13 09:48N 28°58' W 013°32'0 0.0
2019-Oct-13 09:24N 28°58' W 013°32'0 0.0
2019-Oct-13 08:50N 28°58' W 013°32'0 0.0
2019-Oct-13 08:15N 28°58' W 013°32'0 0.0
2019-Oct-13 07:22N 28°58' W 013°32'0 0.0
2019-Oct-13 06:52N 28°58' W 013°32'0 0.7
2019-Oct-13 06:19N 28°58' W 013°32'3 7.8
2019-Oct-13 05:53N 28°54' W 013°33'7 9.8
2019-Oct-13 05:13N 28°51' W 013°40'411.0
2019-Oct-13 04:49N 28°49' W 013°44'510.8
2019-Oct-13 04:24N 28°48' W 013°49'4210.2
2019-Oct-13 00:18N 28°48' W 014°37'4 9.8
2019-Oct-12 23:56N 28°45' W 014°40'410.2
2019-Oct-12 23:30N 28°41' W 014°42'510.7
2019-Oct-12 23:00N 28°36' W 014°44'511.0
2019-Oct-12 22:31N 28°31' W 014°46'510.8
2019-Oct-12 22:01N 28°26' W 014°48'510.9
2019-Oct-12 21:31N 28°21' W 014°49'611.3
2019-Oct-12 21:01N 28°15' W 014°52'611.1
2019-Oct-12 20:30N 28°10' W 014°54'611.1
2019-Oct-12 20:00N 28°05' W 014°56'4 8.2
2019-Oct-12 19:31N 28°03' W 015°00'510.7
2019-Oct-12 19:01N 28°05' W 015°06'510.3
2019-Oct-12 18:31N 28°06' W 015°12'510.3
2019-Oct-12 18:00N 28°06' W 015°17'510.7
2019-Oct-12 17:31N 28°07' W 015°23'2 4.9
2019-Oct-12 17:01N 28°08' W 015°25'0 0.3
2019-Oct-12 16:28N 28°08' W 015°25'0 0.0
2019-Oct-12 15:58N 28°08' W 015°25'0 0.0
2019-Oct-12 15:28N 28°08' W 015°25'0 0.0
2019-Oct-12 14:58N 28°08' W 015°25'0 0.0
2019-Oct-12 14:28N 28°08' W 015°25'0 0.0
2019-Oct-12 13:58N 28°08' W 015°25'0 0.0
2019-Oct-12 13:28N 28°08' W 015°25'0 0.0
2019-Oct-12 12:58N 28°08' W 015°25'0 0.0
2019-Oct-12 12:27N 28°08' W 015°25'0 0.0
2019-Oct-12 11:58N 28°08' W 015°25'0 0.0
2019-Oct-12 11:29N 28°08' W 015°25'0 0.0
2019-Oct-12 10:58N 28°08' W 015°25'0 0.0
2019-Oct-12 10:28N 28°08' W 015°25'0 0.0
2019-Oct-12 09:58N 28°08' W 015°25'0 0.0
2019-Oct-12 09:28N 28°08' W 015°25'0 0.0
2019-Oct-12 08:58N 28°08' W 015°25'0 0.0
2019-Oct-12 08:30N 28°08' W 015°25'0 0.0
2019-Oct-12 08:00N 28°08' W 015°25'0 0.0
2019-Oct-12 07:30N 28°08' W 015°25'0 0.0
2019-Oct-12 06:57N 28°08' W 015°25'0 0.6
2019-Oct-12 06:30N 28°08' W 015°25'3 5.5
2019-Oct-12 06:00N 28°07' W 015°23'3 7.0
2019-Oct-12 05:30N 28°07' W 015°19'611.7
2019-Oct-12 05:00N 28°01' W 015°17'611.8
2019-Oct-12 04:30N 27°55' W 015°16'611.4
2019-Oct-12 04:00N 27°50' W 015°16'510.9
2019-Oct-12 03:30N 27°44' W 015°17'611.2
2019-Oct-12 03:00N 27°40' W 015°21'54 7.8
2019-Oct-11 20:02N 28°09' W 016°12'212.4
2019-Oct-11 19:54N 28°11' W 016°11'512.7
2019-Oct-11 19:30N 28°15' W 016°07'612.7
2019-Oct-11 19:00N 28°20' W 016°04'612.3
2019-Oct-11 18:30N 28°24' W 016°09'611.5
2019-Oct-11 18:00N 28°28' W 016°14'1 1.5
2019-Oct-11 17:30N 28°28' W 016°14'0 0.0
2019-Oct-11 17:00N 28°28' W 016°14'0 0.0
2019-Oct-11 16:30N 28°28' W 016°14'0 0.0
2019-Oct-11 16:00N 28°28' W 016°14'0 0.0
2019-Oct-11 15:27N 28°28' W 016°14'0 0.0
2019-Oct-11 15:00N 28°28' W 016°14'0 0.0
2019-Oct-11 14:30N 28°28' W 016°14'0 0.0
2019-Oct-11 14:00N 28°28' W 016°14'0 0.0
2019-Oct-11 13:30N 28°28' W 016°14'0 0.0
2019-Oct-11 12:54N 28°28' W 016°14'0 0.0
2019-Oct-11 12:30N 28°28' W 016°14'0 0.0
2019-Oct-11 11:59N 28°28' W 016°14'0 0.0
2019-Oct-11 11:30N 28°28' W 016°14'0 0.0
2019-Oct-11 10:59N 28°28' W 016°14'0 0.0
2019-Oct-11 10:29N 28°28' W 016°14'0 0.0
2019-Oct-11 10:00N 28°28' W 016°14'0 0.0
2019-Oct-11 09:31N 28°28' W 016°14'0 0.0
2019-Oct-11 08:58N 28°28' W 016°14'0 0.0
2019-Oct-11 08:28N 28°28' W 016°14'0 0.0
2019-Oct-11 08:00N 28°28' W 016°14'0 0.0
2019-Oct-11 07:30N 28°28' W 016°14'0 0.0
2019-Oct-11 07:00N 28°28' W 016°14'1 1.2
2019-Oct-11 06:31N 28°29' W 016°14'2 3.1
2019-Oct-11 06:01N 28°28' W 016°13'510.6
2019-Oct-11 05:30N 28°25' W 016°08'612.8
2019-Oct-11 05:01N 28°23' W 016°01'611.6
2019-Oct-11 04:30N 28°19' W 015°56'612.0
2019-Oct-11 04:00N 28°14' W 015°60'510.8
2019-Oct-11 03:30N 28°10' W 016°04'6 9.7
2019-Oct-11 02:51N 28°06' W 016°08'4 9.9
2019-Oct-11 02:25N 28°02' W 016°11'301 6.2
2019-Oct-09 01:46N 33°03' W 016°12'12414.3
2019-Oct-08 17:08N 34°56' W 015°12'17315.6
2019-Oct-08 06:00N 37°36' W 013°48'40517.6 360 / 121021.410.8 22.018.021.7
2019-Oct-07 07:00N 43°48' W 010°18'39115.6 220 / 171018.310.8 19.017.417.8
2019-Oct-06 06:00N 49°12' W 005°00'5315.7 320 / 271013.210.8 15.011.316.5
2019-Oct-06 02:36N 49°40' W 003°50'1015.8
2019-Oct-06 01:57N 49°45' W 003°37'815.6
2019-Oct-06 01:28N 49°49' W 003°26'715.3
2019-Oct-06 01:00N 49°52' W 003°17'815.3
2019-Oct-06 00:30N 49°57' W 003°07'815.2
2019-Oct-06 00:00N 50°01' W 002°57'815.3
2019-Oct-05 23:30N 50°03' W 002°45'815.5
2019-Oct-05 23:00N 50°05' W 002°34'  

Dump ship's entire track history